sensor_id;sensor_type;location;lat;lon;timestamp;temperature;humidity
20162;DHT22;51382;53.180;15.414;2023-04-09T00:00:13;6.40;99.90
20162;DHT22;51382;53.180;15.414;2023-04-09T00:15:25;6.40;99.90
20162;DHT22;51382;53.180;15.414;2023-04-09T00:30:31;6.30;99.90
20162;DHT22;51382;53.180;15.414;2023-04-09T00:45:43;6.30;99.90
20162;DHT22;51382;53.180;15.414;2023-04-09T01:00:54;6.20;99.90
20162;DHT22;51382;53.180;15.414;2023-04-09T01:16:01;6.00;99.90
20162;DHT22;51382;53.180;15.414;2023-04-09T01:31:16;5.80;99.90
20162;DHT22;51382;53.180;15.414;2023-04-09T01:46:29;5.60;99.90
20162;DHT22;51382;53.180;15.414;2023-04-09T02:01:43;5.40;99.90
20162;DHT22;51382;53.180;15.414;2023-04-09T02:16:55;5.30;99.90
20162;DHT22;51382;53.180;15.414;2023-04-09T02:32:06;5.20;99.90
20162;DHT22;51382;53.180;15.414;2023-04-09T02:47:13;5.20;99.90
20162;DHT22;51382;53.180;15.414;2023-04-09T03:02:24;5.30;99.90
20162;DHT22;51382;53.180;15.414;2023-04-09T03:17:36;5.20;99.90
20162;DHT22;51382;53.180;15.414;2023-04-09T03:32:42;5.10;99.90
20162;DHT22;51382;53.180;15.414;2023-04-09T03:47:55;5.10;99.90
20162;DHT22;51382;53.180;15.414;2023-04-09T04:03:07;4.90;99.90
20162;DHT22;51382;53.180;15.414;2023-04-09T04:18:44;5.10;99.90
20162;DHT22;51382;53.180;15.414;2023-04-09T04:33:56;4.80;99.90
20162;DHT22;51382;53.180;15.414;2023-04-09T04:49:07;4.90;99.90
20162;DHT22;51382;53.180;15.414;2023-04-09T05:04:23;4.90;99.90
20162;DHT22;51382;53.180;15.414;2023-04-09T05:19:35;5.10;99.90
20162;DHT22;51382;53.180;15.414;2023-04-09T05:34:47;5.40;99.90
20162;DHT22;51382;53.180;15.414;2023-04-09T05:49:59;5.00;99.90
20162;DHT22;51382;53.180;15.414;2023-04-09T06:05:10;5.10;99.90
20162;DHT22;51382;53.180;15.414;2023-04-09T06:20:22;5.10;99.90
20162;DHT22;51382;53.180;15.414;2023-04-09T06:35:34;5.30;99.90
20162;DHT22;51382;53.180;15.414;2023-04-09T06:50:45;5.50;99.90
20162;DHT22;51382;53.180;15.414;2023-04-09T07:05:56;5.60;99.90
20162;DHT22;51382;53.180;15.414;2023-04-09T07:21:07;6.10;99.90
20162;DHT22;51382;53.180;15.414;2023-04-09T07:36:19;6.80;99.90
20162;DHT22;51382;53.180;15.414;2023-04-09T07:51:30;6.50;99.90
20162;DHT22;51382;53.180;15.414;2023-04-09T08:06:42;6.90;99.90
20162;DHT22;51382;53.180;15.414;2023-04-09T08:21:57;6.80;99.90
20162;DHT22;51382;53.180;15.414;2023-04-09T08:37:09;7.70;99.90
20162;DHT22;51382;53.180;15.414;2023-04-09T08:52:20;6.90;99.90
20162;DHT22;51382;53.180;15.414;2023-04-09T09:07:43;8.00;99.90
20162;DHT22;51382;53.180;15.414;2023-04-09T09:23:02;8.70;99.90
20162;DHT22;51382;53.180;15.414;2023-04-09T09:38:14;8.00;99.90
20162;DHT22;51382;53.180;15.414;2023-04-09T09:53:25;8.20;99.90
20162;DHT22;51382;53.180;15.414;2023-04-09T10:08:38;8.10;99.90
20162;DHT22;51382;53.180;15.414;2023-04-09T10:23:54;8.40;99.90
20162;DHT22;51382;53.180;15.414;2023-04-09T10:39:11;8.80;99.90
20162;DHT22;51382;53.180;15.414;2023-04-09T10:54:42;9.50;99.90
20162;DHT22;51382;53.180;15.414;2023-04-09T11:09:55;9.80;99.90
20162;DHT22;51382;53.180;15.414;2023-04-09T11:25:08;10.50;99.90
20162;DHT22;51382;53.180;15.414;2023-04-09T11:40:26;10.60;99.90
20162;DHT22;51382;53.180;15.414;2023-04-09T11:55:38;10.30;99.90
20162;DHT22;51382;53.180;15.414;2023-04-09T12:10:53;10.80;99.90
20162;DHT22;51382;53.180;15.414;2023-04-09T12:26:05;11.40;99.90
20162;DHT22;51382;53.180;15.414;2023-04-09T12:41:11;12.30;99.90
20162;DHT22;51382;53.180;15.414;2023-04-09T12:56:25;11.10;99.90
20162;DHT22;51382;53.180;15.414;2023-04-09T13:11:37;11.30;99.90
20162;DHT22;51382;53.180;15.414;2023-04-09T13:26:48;11.80;99.90
20162;DHT22;51382;53.180;15.414;2023-04-09T13:41:59;12.10;99.90
20162;DHT22;51382;53.180;15.414;2023-04-09T13:57:13;12.40;99.90
20162;DHT22;51382;53.180;15.414;2023-04-09T14:12:25;12.70;99.90
20162;DHT22;51382;53.180;15.414;2023-04-09T14:27:36;14.30;99.90
20162;DHT22;51382;53.180;15.414;2023-04-09T14:42:47;12.60;99.90
20162;DHT22;51382;53.180;15.414;2023-04-09T14:57:59;12.80;99.90
20162;DHT22;51382;53.180;15.414;2023-04-09T15:13:11;13.00;99.90
20162;DHT22;51382;53.180;15.414;2023-04-09T15:28:22;12.90;99.90
20162;DHT22;51382;53.180;15.414;2023-04-09T15:43:34;13.10;99.90
20162;DHT22;51382;53.180;15.414;2023-04-09T15:58:45;13.00;99.90
20162;DHT22;51382;53.180;15.414;2023-04-09T16:13:56;12.80;99.90
20162;DHT22;51382;53.180;15.414;2023-04-09T16:29:10;12.50;99.90
20162;DHT22;51382;53.180;15.414;2023-04-09T16:44:23;12.30;99.90
20162;DHT22;51382;53.180;15.414;2023-04-09T16:59:30;11.80;99.90
20162;DHT22;51382;53.180;15.414;2023-04-09T17:14:41;11.60;99.90
20162;DHT22;51382;53.180;15.414;2023-04-09T17:29:56;11.00;99.90
20162;DHT22;51382;53.180;15.414;2023-04-09T17:45:08;10.10;99.90
20162;DHT22;51382;53.180;15.414;2023-04-09T18:00:20;9.40;99.90
20162;DHT22;51382;53.180;15.414;2023-04-09T18:15:32;8.30;99.90
20162;DHT22;51382;53.180;15.414;2023-04-09T18:30:43;7.90;99.90
20162;DHT22;51382;53.180;15.414;2023-04-09T18:45:55;7.80;99.90
20162;DHT22;51382;53.180;15.414;2023-04-09T19:01:09;7.90;99.90
20162;DHT22;51382;53.180;15.414;2023-04-09T19:16:21;6.90;99.90
20162;DHT22;51382;53.180;15.414;2023-04-09T19:31:35;6.60;99.90
20162;DHT22;51382;53.180;15.414;2023-04-09T19:46:50;6.30;99.90
20162;DHT22;51382;53.180;15.414;2023-04-09T20:01:56;6.40;99.90
20162;DHT22;51382;53.180;15.414;2023-04-09T20:17:08;6.00;99.90
20162;DHT22;51382;53.180;15.414;2023-04-09T20:32:19;6.10;99.90
20162;DHT22;51382;53.180;15.414;2023-04-09T20:47:32;5.60;99.90
20162;DHT22;51382;53.180;15.414;2023-04-09T21:02:43;5.40;99.90
20162;DHT22;51382;53.180;15.414;2023-04-09T21:17:54;5.10;99.90
20162;DHT22;51382;53.180;15.414;2023-04-09T21:33:06;4.60;99.90
20162;DHT22;51382;53.180;15.414;2023-04-09T21:48:18;4.40;99.90
20162;DHT22;51382;53.180;15.414;2023-04-09T22:03:31;4.20;99.90
20162;DHT22;51382;53.180;15.414;2023-04-09T22:18:42;4.20;99.90
20162;DHT22;51382;53.180;15.414;2023-04-09T22:33:49;4.20;99.90
20162;DHT22;51382;53.180;15.414;2023-04-09T22:48:55;3.80;99.90
20162;DHT22;51382;53.180;15.414;2023-04-09T23:04:06;4.00;99.90
20162;DHT22;51382;53.180;15.414;2023-04-09T23:19:17;3.80;99.90
20162;DHT22;51382;53.180;15.414;2023-04-09T23:34:29;3.60;99.90
20162;DHT22;51382;53.180;15.414;2023-04-09T23:49:40;3.30;99.90
